sensor_id;sensor_type;location;lat;lon;timestamp;temperature;humidity
52643;DHT22;38531;53.296;6.614;2023-07-13T00:00:04;16.60;99.90
52643;DHT22;38531;53.296;6.614;2023-07-13T00:02:34;16.60;99.90
52643;DHT22;38531;53.296;6.614;2023-07-13T00:05:00;16.50;99.90
52643;DHT22;38531;53.296;6.614;2023-07-13T00:07:26;16.60;99.90
52643;DHT22;38531;53.296;6.614;2023-07-13T00:09:52;16.50;99.90
52643;DHT22;38531;53.296;6.614;2023-07-13T00:12:32;16.50;99.90
52643;DHT22;38531;53.296;6.614;2023-07-13T00:15:00;16.50;99.90
52643;DHT22;38531;53.296;6.614;2023-07-13T00:17:27;16.50;99.90
52643;DHT22;38531;53.296;6.614;2023-07-13T00:19:54;16.50;99.90
52643;DHT22;38531;53.296;6.614;2023-07-13T00:22:21;16.50;99.90
52643;DHT22;38531;53.296;6.614;2023-07-13T00:24:47;16.50;99.90
52643;DHT22;38531;53.296;6.614;2023-07-13T00:27:13;16.50;99.90
52643;DHT22;38531;53.296;6.614;2023-07-13T00:29:39;16.50;99.90
52643;DHT22;38531;53.296;6.614;2023-07-13T00:32:06;16.50;99.90
52643;DHT22;38531;53.296;6.614;2023-07-13T00:34:32;16.50;99.90
52643;DHT22;38531;53.296;6.614;2023-07-13T00:36:58;16.50;99.90
52643;DHT22;38531;53.296;6.614;2023-07-13T00:39:24;16.50;99.90
52643;DHT22;38531;53.296;6.614;2023-07-13T00:41:50;16.50;99.90
52643;DHT22;38531;53.296;6.614;2023-07-13T00:44:20;16.50;99.90
52643;DHT22;38531;53.296;6.614;2023-07-13T00:46:49;16.50;99.90
52643;DHT22;38531;53.296;6.614;2023-07-13T00:49:22;16.50;99.90
52643;DHT22;38531;53.296;6.614;2023-07-13T00:52:02;16.50;99.90
52643;DHT22;38531;53.296;6.614;2023-07-13T00:54:33;16.50;99.90
52643;DHT22;38531;53.296;6.614;2023-07-13T00:57:03;16.50;99.90
52643;DHT22;38531;53.296;6.614;2023-07-13T00:59:29;16.50;99.90
52643;DHT22;38531;53.296;6.614;2023-07-13T01:01:56;16.40;99.90
52643;DHT22;38531;53.296;6.614;2023-07-13T01:04:24;16.40;99.90
52643;DHT22;38531;53.296;6.614;2023-07-13T01:06:50;16.40;99.90
52643;DHT22;38531;53.296;6.614;2023-07-13T01:09:16;16.40;99.90
52643;DHT22;38531;53.296;6.614;2023-07-13T01:11:43;16.40;99.90
52643;DHT22;38531;53.296;6.614;2023-07-13T01:14:10;16.40;99.90
52643;DHT22;38531;53.296;6.614;2023-07-13T01:16:37;16.40;99.90
52643;DHT22;38531;53.296;6.614;2023-07-13T01:21:50;16.40;99.90
52643;DHT22;38531;53.296;6.614;2023-07-13T01:24:18;16.40;99.90
52643;DHT22;38531;53.296;6.614;2023-07-13T01:26:44;16.40;99.90
52643;DHT22;38531;53.296;6.614;2023-07-13T01:29:10;16.40;99.90
52643;DHT22;38531;53.296;6.614;2023-07-13T01:31:36;16.30;99.90
52643;DHT22;38531;53.296;6.614;2023-07-13T01:34:02;16.40;99.90
52643;DHT22;38531;53.296;6.614;2023-07-13T01:36:27;16.30;99.90
52643;DHT22;38531;53.296;6.614;2023-07-13T01:38:53;16.40;99.90
52643;DHT22;38531;53.296;6.614;2023-07-13T01:41:19;16.30;99.90
52643;DHT22;38531;53.296;6.614;2023-07-13T01:43:44;16.30;99.90
52643;DHT22;38531;53.296;6.614;2023-07-13T01:46:10;16.10;99.90
52643;DHT22;38531;53.296;6.614;2023-07-13T01:48:36;16.30;99.90
52643;DHT22;38531;53.296;6.614;2023-07-13T01:51:02;16.30;99.90
52643;DHT22;38531;53.296;6.614;2023-07-13T01:53:27;16.30;99.90
52643;DHT22;38531;53.296;6.614;2023-07-13T01:55:53;16.30;99.90
52643;DHT22;38531;53.296;6.614;2023-07-13T01:58:19;16.20;99.90
52643;DHT22;38531;53.296;6.614;2023-07-13T02:00:47;16.20;99.90
52643;DHT22;38531;53.296;6.614;2023-07-13T02:03:13;16.30;99.90
52643;DHT22;38531;53.296;6.614;2023-07-13T02:05:43;16.10;99.90
52643;DHT22;38531;53.296;6.614;2023-07-13T02:08:09;16.20;99.90
52643;DHT22;38531;53.296;6.614;2023-07-13T02:10:36;16.20;99.90
52643;DHT22;38531;53.296;6.614;2023-07-13T02:13:04;16.20;99.90
52643;DHT22;38531;53.296;6.614;2023-07-13T02:15:29;16.20;99.90
52643;DHT22;38531;53.296;6.614;2023-07-13T02:17:55;16.20;99.90
52643;DHT22;38531;53.296;6.614;2023-07-13T02:20:22;16.20;99.90
52643;DHT22;38531;53.296;6.614;2023-07-13T02:22:48;16.20;99.90
52643;DHT22;38531;53.296;6.614;2023-07-13T02:25:14;16.20;99.90
52643;DHT22;38531;53.296;6.614;2023-07-13T02:27:39;16.10;99.90
52643;DHT22;38531;53.296;6.614;2023-07-13T02:30:06;16.10;99.90
52643;DHT22;38531;53.296;6.614;2023-07-13T02:32:32;16.20;99.90
52643;DHT22;38531;53.296;6.614;2023-07-13T02:34:57;16.10;99.90
52643;DHT22;38531;53.296;6.614;2023-07-13T02:37:23;16.10;99.90
52643;DHT22;38531;53.296;6.614;2023-07-13T02:39:49;16.10;99.90
52643;DHT22;38531;53.296;6.614;2023-07-13T02:42:14;16.10;99.90
52643;DHT22;38531;53.296;6.614;2023-07-13T02:44:40;16.10;99.90
52643;DHT22;38531;53.296;6.614;2023-07-13T02:47:06;16.10;99.90
52643;DHT22;38531;53.296;6.614;2023-07-13T02:49:32;16.00;99.90
52643;DHT22;38531;53.296;6.614;2023-07-13T02:51:57;16.00;99.90
52643;DHT22;38531;53.296;6.614;2023-07-13T02:54:23;16.00;99.90
52643;DHT22;38531;53.296;6.614;2023-07-13T02:56:49;16.00;99.90
52643;DHT22;38531;53.296;6.614;2023-07-13T02:59:14;15.90;99.90
52643;DHT22;38531;53.296;6.614;2023-07-13T03:01:40;15.90;99.90
52643;DHT22;38531;53.296;6.614;2023-07-13T03:04:06;15.90;99.90
52643;DHT22;38531;53.296;6.614;2023-07-13T03:06:33;16.00;99.90
52643;DHT22;38531;53.296;6.614;2023-07-13T03:08:59;16.00;99.90
52643;DHT22;38531;53.296;6.614;2023-07-13T03:11:26;15.90;99.90
52643;DHT22;38531;53.296;6.614;2023-07-13T03:13:51;15.90;99.90
52643;DHT22;38531;53.296;6.614;2023-07-13T03:16:17;15.90;99.90
52643;DHT22;38531;53.296;6.614;2023-07-13T03:18:43;15.90;99.90
52643;DHT22;38531;53.296;6.614;2023-07-13T03:21:10;15.90;99.90
52643;DHT22;38531;53.296;6.614;2023-07-13T03:23:36;15.80;99.90
52643;DHT22;38531;53.296;6.614;2023-07-13T03:26:07;15.80;99.90
52643;DHT22;38531;53.296;6.614;2023-07-13T03:28:33;15.80;99.90
52643;DHT22;38531;53.296;6.614;2023-07-13T03:31:03;15.80;99.90
52643;DHT22;38531;53.296;6.614;2023-07-13T03:33:29;15.80;99.90
52643;DHT22;38531;53.296;6.614;2023-07-13T03:35:56;15.80;99.90
52643;DHT22;38531;53.296;6.614;2023-07-13T03:38:21;15.80;99.90
52643;DHT22;38531;53.296;6.614;2023-07-13T03:40:47;15.80;99.90
52643;DHT22;38531;53.296;6.614;2023-07-13T03:43:13;15.90;99.90
52643;DHT22;38531;53.296;6.614;2023-07-13T03:45:38;15.90;99.90
52643;DHT22;38531;53.296;6.614;2023-07-13T03:48:04;15.90;99.90
52643;DHT22;38531;53.296;6.614;2023-07-13T03:50:30;16.00;99.90
52643;DHT22;38531;53.296;6.614;2023-07-13T03:52:58;15.90;99.90
52643;DHT22;38531;53.296;6.614;2023-07-13T03:55:24;15.90;99.90
52643;DHT22;38531;53.296;6.614;2023-07-13T03:57:57;15.90;99.90
52643;DHT22;38531;53.296;6.614;2023-07-13T04:00:24;16.00;99.90
52643;DHT22;38531;53.296;6.614;2023-07-13T04:02:50;16.00;99.90
52643;DHT22;38531;53.296;6.614;2023-07-13T04:05:16;16.00;99.90
52643;DHT22;38531;53.296;6.614;2023-07-13T04:07:41;16.00;99.90
52643;DHT22;38531;53.296;6.614;2023-07-13T04:10:08;16.00;99.90
52643;DHT22;38531;53.296;6.614;2023-07-13T04:12:33;16.00;99.90
52643;DHT22;38531;53.296;6.614;2023-07-13T04:14:59;16.00;99.90
52643;DHT22;38531;53.296;6.614;2023-07-13T04:17:25;16.00;99.90
52643;DHT22;38531;53.296;6.614;2023-07-13T04:19:51;16.00;99.90
52643;DHT22;38531;53.296;6.614;2023-07-13T04:22:16;16.00;99.90
52643;DHT22;38531;53.296;6.614;2023-07-13T04:24:42;16.00;99.90
52643;DHT22;38531;53.296;6.614;2023-07-13T04:27:08;15.90;99.90
52643;DHT22;38531;53.296;6.614;2023-07-13T04:29:33;15.90;99.90
52643;DHT22;38531;53.296;6.614;2023-07-13T04:31:59;15.90;99.90
52643;DHT22;38531;53.296;6.614;2023-07-13T04:34:25;16.00;99.90
52643;DHT22;38531;53.296;6.614;2023-07-13T04:36:50;16.00;99.90
52643;DHT22;38531;53.296;6.614;2023-07-13T04:39:16;16.00;99.90
52643;DHT22;38531;53.296;6.614;2023-07-13T04:41:42;16.00;99.90
52643;DHT22;38531;53.296;6.614;2023-07-13T04:44:08;16.00;99.90
52643;DHT22;38531;53.296;6.614;2023-07-13T04:46:33;16.10;99.90
52643;DHT22;38531;53.296;6.614;2023-07-13T04:48:59;16.10;99.90
52643;DHT22;38531;53.296;6.614;2023-07-13T04:51:26;16.20;99.90
52643;DHT22;38531;53.296;6.614;2023-07-13T04:53:52;16.20;99.90
52643;DHT22;38531;53.296;6.614;2023-07-13T04:56:18;16.30;99.90
52643;DHT22;38531;53.296;6.614;2023-07-13T04:58:45;16.30;99.90
52643;DHT22;38531;53.296;6.614;2023-07-13T05:01:11;16.40;99.90
52643;DHT22;38531;53.296;6.614;2023-07-13T05:03:36;16.40;99.90
52643;DHT22;38531;53.296;6.614;2023-07-13T05:06:07;16.50;99.90
52643;DHT22;38531;53.296;6.614;2023-07-13T05:08:35;16.50;99.90
52643;DHT22;38531;53.296;6.614;2023-07-13T05:11:02;16.60;99.90
52643;DHT22;38531;53.296;6.614;2023-07-13T05:13:28;16.60;99.90
52643;DHT22;38531;53.296;6.614;2023-07-13T05:16:00;16.70;99.90
52643;DHT22;38531;53.296;6.614;2023-07-13T05:18:26;16.80;99.90
52643;DHT22;38531;53.296;6.614;2023-07-13T05:23:26;16.90;99.90
52643;DHT22;38531;53.296;6.614;2023-07-13T05:25:51;17.00;99.90
52643;DHT22;38531;53.296;6.614;2023-07-13T05:28:17;17.00;99.90
52643;DHT22;38531;53.296;6.614;2023-07-13T05:30:47;17.10;99.90
52643;DHT22;38531;53.296;6.614;2023-07-13T05:33:13;17.10;99.90
52643;DHT22;38531;53.296;6.614;2023-07-13T05:35:39;17.20;99.90
52643;DHT22;38531;53.296;6.614;2023-07-13T05:38:04;17.30;99.90
52643;DHT22;38531;53.296;6.614;2023-07-13T05:40:30;17.20;99.90
52643;DHT22;38531;53.296;6.614;2023-07-13T05:42:56;17.40;99.90
52643;DHT22;38531;53.296;6.614;2023-07-13T05:45:21;17.50;99.90
52643;DHT22;38531;53.296;6.614;2023-07-13T05:47:47;17.60;99.90
52643;DHT22;38531;53.296;6.614;2023-07-13T05:50:13;17.70;99.90
52643;DHT22;38531;53.296;6.614;2023-07-13T05:52:38;17.70;99.90
52643;DHT22;38531;53.296;6.614;2023-07-13T05:55:04;17.80;99.90
52643;DHT22;38531;53.296;6.614;2023-07-13T05:57:38;17.90;99.90
52643;DHT22;38531;53.296;6.614;2023-07-13T06:00:04;18.00;99.90
52643;DHT22;38531;53.296;6.614;2023-07-13T06:02:35;18.10;99.90
52643;DHT22;38531;53.296;6.614;2023-07-13T06:05:01;18.30;99.90
52643;DHT22;38531;53.296;6.614;2023-07-13T06:07:27;18.40;99.90
52643;DHT22;38531;53.296;6.614;2023-07-13T06:09:52;18.40;99.90
52643;DHT22;38531;53.296;6.614;2023-07-13T06:12:18;18.50;99.90
52643;DHT22;38531;53.296;6.614;2023-07-13T06:14:44;18.60;99.90
52643;DHT22;38531;53.296;6.614;2023-07-13T06:17:10;18.70;99.90
52643;DHT22;38531;53.296;6.614;2023-07-13T06:19:36;18.70;99.90
52643;DHT22;38531;53.296;6.614;2023-07-13T06:22:02;18.90;99.90
52643;DHT22;38531;53.296;6.614;2023-07-13T06:24:27;18.90;99.90
52643;DHT22;38531;53.296;6.614;2023-07-13T06:26:53;19.10;99.90
52643;DHT22;38531;53.296;6.614;2023-07-13T06:29:19;19.20;99.90
52643;DHT22;38531;53.296;6.614;2023-07-13T06:31:44;19.10;99.90
52643;DHT22;38531;53.296;6.614;2023-07-13T06:34:10;19.20;99.90
52643;DHT22;38531;53.296;6.614;2023-07-13T06:36:36;19.20;99.90
52643;DHT22;38531;53.296;6.614;2023-07-13T06:39:02;19.40;99.90
52643;DHT22;38531;53.296;6.614;2023-07-13T06:41:28;19.50;99.90
52643;DHT22;38531;53.296;6.614;2023-07-13T06:43:54;19.60;99.90
52643;DHT22;38531;53.296;6.614;2023-07-13T06:46:23;19.70;99.90
52643;DHT22;38531;53.296;6.614;2023-07-13T06:48:48;19.70;99.90
52643;DHT22;38531;53.296;6.614;2023-07-13T06:51:14;19.80;99.90
52643;DHT22;38531;53.296;6.614;2023-07-13T06:53:40;19.90;99.90
52643;DHT22;38531;53.296;6.614;2023-07-13T06:56:06;20.00;99.90
52643;DHT22;38531;53.296;6.614;2023-07-13T06:58:33;20.20;99.90
52643;DHT22;38531;53.296;6.614;2023-07-13T07:00:59;20.40;99.90
52643;DHT22;38531;53.296;6.614;2023-07-13T07:03:25;20.40;99.90
52643;DHT22;38531;53.296;6.614;2023-07-13T07:05:51;20.50;99.90
52643;DHT22;38531;53.296;6.614;2023-07-13T07:08:16;20.50;99.90
52643;DHT22;38531;53.296;6.614;2023-07-13T07:10:42;20.40;99.90
52643;DHT22;38531;53.296;6.614;2023-07-13T07:13:08;20.50;99.90
52643;DHT22;38531;53.296;6.614;2023-07-13T07:15:34;20.50;99.90
52643;DHT22;38531;53.296;6.614;2023-07-13T07:18:00;20.80;99.90
52643;DHT22;38531;53.296;6.614;2023-07-13T07:20:26;21.00;99.90
52643;DHT22;38531;53.296;6.614;2023-07-13T07:22:52;21.20;99.90
52643;DHT22;38531;53.296;6.614;2023-07-13T07:25:18;21.20;99.90
52643;DHT22;38531;53.296;6.614;2023-07-13T07:27:44;21.20;99.90
52643;DHT22;38531;53.296;6.614;2023-07-13T07:30:10;21.10;99.90
52643;DHT22;38531;53.296;6.614;2023-07-13T07:32:36;21.30;99.90
52643;DHT22;38531;53.296;6.614;2023-07-13T07:35:02;21.50;99.90
52643;DHT22;38531;53.296;6.614;2023-07-13T07:37:28;21.60;99.90
52643;DHT22;38531;53.296;6.614;2023-07-13T07:39:53;21.60;99.90
52643;DHT22;38531;53.296;6.614;2023-07-13T07:42:20;21.50;99.90
52643;DHT22;38531;53.296;6.614;2023-07-13T07:44:45;21.50;99.90
52643;DHT22;38531;53.296;6.614;2023-07-13T07:47:11;21.50;99.90
52643;DHT22;38531;53.296;6.614;2023-07-13T07:49:37;21.60;99.90
52643;DHT22;38531;53.296;6.614;2023-07-13T07:52:03;21.70;99.90
52643;DHT22;38531;53.296;6.614;2023-07-13T07:54:29;21.80;99.90
52643;DHT22;38531;53.296;6.614;2023-07-13T07:56:55;21.90;99.90
52643;DHT22;38531;53.296;6.614;2023-07-13T07:59:21;22.00;99.90
52643;DHT22;38531;53.296;6.614;2023-07-13T08:01:46;22.20;99.90
52643;DHT22;38531;53.296;6.614;2023-07-13T08:04:16;22.30;99.90
52643;DHT22;38531;53.296;6.614;2023-07-13T08:06:41;22.20;99.90
52643;DHT22;38531;53.296;6.614;2023-07-13T08:09:07;22.00;99.90
52643;DHT22;38531;53.296;6.614;2023-07-13T08:11:33;21.80;99.90
52643;DHT22;38531;53.296;6.614;2023-07-13T08:13:59;21.60;99.90
52643;DHT22;38531;53.296;6.614;2023-07-13T08:16:25;21.50;99.90
52643;DHT22;38531;53.296;6.614;2023-07-13T08:18:51;21.20;99.90
52643;DHT22;38531;53.296;6.614;2023-07-13T08:21:17;20.80;99.90
52643;DHT22;38531;53.296;6.614;2023-07-13T08:23:45;20.60;99.90
52643;DHT22;38531;53.296;6.614;2023-07-13T08:26:11;20.60;99.90
52643;DHT22;38531;53.296;6.614;2023-07-13T08:28:37;20.40;99.90
52643;DHT22;38531;53.296;6.614;2023-07-13T08:31:05;20.50;99.90
52643;DHT22;38531;53.296;6.614;2023-07-13T08:33:31;20.30;99.90
52643;DHT22;38531;53.296;6.614;2023-07-13T08:35:57;20.30;99.90
52643;DHT22;38531;53.296;6.614;2023-07-13T08:38:23;20.30;99.90
52643;DHT22;38531;53.296;6.614;2023-07-13T08:40:52;20.20;99.90
52643;DHT22;38531;53.296;6.614;2023-07-13T08:43:23;20.10;99.90
52643;DHT22;38531;53.296;6.614;2023-07-13T08:45:54;20.10;99.90
52643;DHT22;38531;53.296;6.614;2023-07-13T08:48:30;20.10;99.90
52643;DHT22;38531;53.296;6.614;2023-07-13T08:51:13;20.20;99.90
52643;DHT22;38531;53.296;6.614;2023-07-13T08:53:46;20.00;99.90
52643;DHT22;38531;53.296;6.614;2023-07-13T08:56:18;20.10;99.90
52643;DHT22;38531;53.296;6.614;2023-07-13T08:58:51;20.10;99.90
52643;DHT22;38531;53.296;6.614;2023-07-13T09:04:23;20.00;99.90
52643;DHT22;38531;53.296;6.614;2023-07-13T09:07:10;20.30;99.90
52643;DHT22;38531;53.296;6.614;2023-07-13T09:10:26;20.40;99.90
52643;DHT22;38531;53.296;6.614;2023-07-13T09:12:45;20.50;99.90
52643;DHT22;38531;53.296;6.614;2023-07-13T09:15:40;20.40;99.90
52643;DHT22;38531;53.296;6.614;2023-07-13T09:18:19;20.50;99.90
52643;DHT22;38531;53.296;6.614;2023-07-13T09:21:00;20.60;99.90
52643;DHT22;38531;53.296;6.614;2023-07-13T09:23:29;21.00;99.90
52643;DHT22;38531;53.296;6.614;2023-07-13T09:26:22;21.40;99.90
52643;DHT22;38531;53.296;6.614;2023-07-13T09:28:54;21.70;99.90
52643;DHT22;38531;53.296;6.614;2023-07-13T09:31:26;22.10;99.90
52643;DHT22;38531;53.296;6.614;2023-07-13T09:33:55;22.20;99.90
52643;DHT22;38531;53.296;6.614;2023-07-13T09:39:04;21.80;99.90
52643;DHT22;38531;53.296;6.614;2023-07-13T09:44:13;21.40;99.90
52643;DHT22;38531;53.296;6.614;2023-07-13T09:46:44;21.30;99.90
52643;DHT22;38531;53.296;6.614;2023-07-13T09:49:11;21.50;99.90
52643;DHT22;38531;53.296;6.614;2023-07-13T09:51:40;21.60;99.90
52643;DHT22;38531;53.296;6.614;2023-07-13T09:54:18;21.70;99.90
52643;DHT22;38531;53.296;6.614;2023-07-13T09:56:45;21.60;99.90
52643;DHT22;38531;53.296;6.614;2023-07-13T09:59:22;21.60;99.90
52643;DHT22;38531;53.296;6.614;2023-07-13T10:01:49;21.60;99.90
52643;DHT22;38531;53.296;6.614;2023-07-13T10:04:19;21.60;99.90
52643;DHT22;38531;53.296;6.614;2023-07-13T10:06:46;21.60;99.90
52643;DHT22;38531;53.296;6.614;2023-07-13T10:09:17;21.70;99.90
52643;DHT22;38531;53.296;6.614;2023-07-13T10:11:44;21.80;99.90
52643;DHT22;38531;53.296;6.614;2023-07-13T10:14:15;21.90;99.90
52643;DHT22;38531;53.296;6.614;2023-07-13T10:16:44;22.30;99.90
52643;DHT22;38531;53.296;6.614;2023-07-13T10:19:23;22.30;99.90
52643;DHT22;38531;53.296;6.614;2023-07-13T10:21:57;22.10;99.90
52643;DHT22;38531;53.296;6.614;2023-07-13T10:27:19;22.00;99.90
52643;DHT22;38531;53.296;6.614;2023-07-13T10:32:19;22.10;99.90
52643;DHT22;38531;53.296;6.614;2023-07-13T10:34:47;22.50;99.90
52643;DHT22;38531;53.296;6.614;2023-07-13T10:37:23;22.40;99.90
52643;DHT22;38531;53.296;6.614;2023-07-13T10:39:52;22.30;99.90
52643;DHT22;38531;53.296;6.614;2023-07-13T10:42:32;22.20;99.90
52643;DHT22;38531;53.296;6.614;2023-07-13T10:45:01;22.00;99.90
52643;DHT22;38531;53.296;6.614;2023-07-13T10:47:28;21.90;99.90
52643;DHT22;38531;53.296;6.614;2023-07-13T10:49:56;22.00;99.90
52643;DHT22;38531;53.296;6.614;2023-07-13T10:52:42;22.40;99.90
52643;DHT22;38531;53.296;6.614;2023-07-13T10:55:35;22.90;99.50
52643;DHT22;38531;53.296;6.614;2023-07-13T10:58:24;23.10;99.60
52643;DHT22;38531;53.296;6.614;2023-07-13T11:01:03;23.40;99.80
52643;DHT22;38531;53.296;6.614;2023-07-13T11:03:30;23.70;99.90
52643;DHT22;38531;53.296;6.614;2023-07-13T11:06:13;23.60;98.20
52643;DHT22;38531;53.296;6.614;2023-07-13T11:17:35;24.00;97.60
52643;DHT22;38531;53.296;6.614;2023-07-13T11:25:51;24.80;97.40
52643;DHT22;38531;53.296;6.614;2023-07-13T11:35:35;24.40;97.70
52643;DHT22;38531;53.296;6.614;2023-07-13T11:38:35;24.10;97.30
52643;DHT22;38531;53.296;6.614;2023-07-13T11:50:04;23.70;97.70
52643;DHT22;38531;53.296;6.614;2023-07-13T12:02:24;24.90;97.50
52643;DHT22;38531;53.296;6.614;2023-07-13T12:07:55;24.50;98.20
52643;DHT22;38531;53.296;6.614;2023-07-13T12:46:37;22.70;99.90
52643;DHT22;38531;53.296;6.614;2023-07-13T12:49:06;22.30;99.90
52643;DHT22;38531;53.296;6.614;2023-07-13T12:51:32;22.00;99.90
52643;DHT22;38531;53.296;6.614;2023-07-13T12:54:11;21.70;99.90
52643;DHT22;38531;53.296;6.614;2023-07-13T12:56:38;21.50;99.90
52643;DHT22;38531;53.296;6.614;2023-07-13T12:59:05;21.50;99.90
52643;DHT22;38531;53.296;6.614;2023-07-13T13:01:34;21.60;99.90
52643;DHT22;38531;53.296;6.614;2023-07-13T13:04:03;21.70;99.90
52643;DHT22;38531;53.296;6.614;2023-07-13T13:06:32;21.70;99.90
52643;DHT22;38531;53.296;6.614;2023-07-13T13:08:59;21.80;99.90
52643;DHT22;38531;53.296;6.614;2023-07-13T13:11:28;21.80;99.90
52643;DHT22;38531;53.296;6.614;2023-07-13T13:13:54;21.90;99.90
52643;DHT22;38531;53.296;6.614;2023-07-13T13:18:53;22.40;99.90
52643;DHT22;38531;53.296;6.614;2023-07-13T13:21:20;22.60;99.90
52643;DHT22;38531;53.296;6.614;2023-07-13T13:23:46;22.50;99.90
52643;DHT22;38531;53.296;6.614;2023-07-13T13:26:13;22.40;99.90
52643;DHT22;38531;53.296;6.614;2023-07-13T13:28:41;22.20;99.90
52643;DHT22;38531;53.296;6.614;2023-07-13T13:31:08;22.10;99.90
52643;DHT22;38531;53.296;6.614;2023-07-13T13:33:38;21.90;99.90
52643;DHT22;38531;53.296;6.614;2023-07-13T13:36:14;22.00;99.90
52643;DHT22;38531;53.296;6.614;2023-07-13T13:46:29;23.60;99.90
52643;DHT22;38531;53.296;6.614;2023-07-13T13:48:57;24.10;99.90
52643;DHT22;38531;53.296;6.614;2023-07-13T13:51:27;24.20;99.90
52643;DHT22;38531;53.296;6.614;2023-07-13T13:53:52;24.20;99.90
52643;DHT22;38531;53.296;6.614;2023-07-13T13:56:19;24.20;99.90
52643;DHT22;38531;53.296;6.614;2023-07-13T14:02:46;23.90;99.90
52643;DHT22;38531;53.296;6.614;2023-07-13T14:05:14;24.40;99.80
52643;DHT22;38531;53.296;6.614;2023-07-13T14:07:41;24.40;98.40
52643;DHT22;38531;53.296;6.614;2023-07-13T14:10:17;24.60;98.60
52643;DHT22;38531;53.296;6.614;2023-07-13T14:12:46;24.60;98.50
52643;DHT22;38531;53.296;6.614;2023-07-13T14:18:53;24.60;98.10
52643;DHT22;38531;53.296;6.614;2023-07-13T14:21:22;24.60;96.50
52643;DHT22;38531;53.296;6.614;2023-07-13T14:23:49;24.30;97.60
52643;DHT22;38531;53.296;6.614;2023-07-13T14:26:18;24.30;97.80
52643;DHT22;38531;53.296;6.614;2023-07-13T14:28:50;24.20;97.50
52643;DHT22;38531;53.296;6.614;2023-07-13T14:31:17;24.00;97.20
52643;DHT22;38531;53.296;6.614;2023-07-13T14:33:44;24.30;97.50
52643;DHT22;38531;53.296;6.614;2023-07-13T14:36:29;24.80;97.50
52643;DHT22;38531;53.296;6.614;2023-07-13T14:38:59;24.80;97.00
52643;DHT22;38531;53.296;6.614;2023-07-13T14:41:26;25.00;96.10
52643;DHT22;38531;53.296;6.614;2023-07-13T14:43:52;25.40;98.10
52643;DHT22;38531;53.296;6.614;2023-07-13T14:46:32;25.70;95.90
52643;DHT22;38531;53.296;6.614;2023-07-13T14:51:29;25.60;95.80
52643;DHT22;38531;53.296;6.614;2023-07-13T14:53:55;25.00;97.10
52643;DHT22;38531;53.296;6.614;2023-07-13T14:56:20;25.20;97.40
52643;DHT22;38531;53.296;6.614;2023-07-13T14:58:46;24.90;97.40
52643;DHT22;38531;53.296;6.614;2023-07-13T15:01:14;24.60;97.30
52643;DHT22;38531;53.296;6.614;2023-07-13T15:03:48;24.10;96.80
52643;DHT22;38531;53.296;6.614;2023-07-13T15:06:14;24.00;97.90
52643;DHT22;38531;53.296;6.614;2023-07-13T15:08:43;24.40;98.20
52643;DHT22;38531;53.296;6.614;2023-07-13T15:11:10;24.00;97.10
52643;DHT22;38531;53.296;6.614;2023-07-13T15:13:39;24.00;98.00
52643;DHT22;38531;53.296;6.614;2023-07-13T15:16:18;24.20;98.00
52643;DHT22;38531;53.296;6.614;2023-07-13T15:18:45;24.30;96.70
52643;DHT22;38531;53.296;6.614;2023-07-13T15:21:14;24.40;97.20
52643;DHT22;38531;53.296;6.614;2023-07-13T15:23:43;24.70;97.60
52643;DHT22;38531;53.296;6.614;2023-07-13T15:26:15;24.90;98.30
52643;DHT22;38531;53.296;6.614;2023-07-13T15:28:43;25.10;97.70
52643;DHT22;38531;53.296;6.614;2023-07-13T15:31:35;25.30;96.40
52643;DHT22;38531;53.296;6.614;2023-07-13T15:34:09;25.70;96.10
52643;DHT22;38531;53.296;6.614;2023-07-13T15:36:36;25.70;96.20
52643;DHT22;38531;53.296;6.614;2023-07-13T15:39:01;25.40;95.40
52643;DHT22;38531;53.296;6.614;2023-07-13T15:41:28;25.10;95.30
52643;DHT22;38531;53.296;6.614;2023-07-13T15:43:59;24.90;95.70
52643;DHT22;38531;53.296;6.614;2023-07-13T15:46:27;25.20;97.20
52643;DHT22;38531;53.296;6.614;2023-07-13T15:48:54;25.20;96.80
52643;DHT22;38531;53.296;6.614;2023-07-13T15:51:28;25.20;95.80
52643;DHT22;38531;53.296;6.614;2023-07-13T15:53:58;25.40;96.40
52643;DHT22;38531;53.296;6.614;2023-07-13T15:56:28;25.60;96.10
52643;DHT22;38531;53.296;6.614;2023-07-13T15:58:54;25.70;95.70
52643;DHT22;38531;53.296;6.614;2023-07-13T16:01:21;25.70;95.90
52643;DHT22;38531;53.296;6.614;2023-07-13T16:03:48;25.40;96.20
52643;DHT22;38531;53.296;6.614;2023-07-13T16:06:31;25.20;96.60
52643;DHT22;38531;53.296;6.614;2023-07-13T16:08:58;24.90;96.60
52643;DHT22;38531;53.296;6.614;2023-07-13T16:11:26;24.50;97.30
52643;DHT22;38531;53.296;6.614;2023-07-13T16:13:53;24.70;96.80
52643;DHT22;38531;53.296;6.614;2023-07-13T16:16:22;24.80;97.70
52643;DHT22;38531;53.296;6.614;2023-07-13T16:18:58;24.60;97.40
52643;DHT22;38531;53.296;6.614;2023-07-13T16:21:26;24.60;96.80
52643;DHT22;38531;53.296;6.614;2023-07-13T16:23:53;24.70;96.80
52643;DHT22;38531;53.296;6.614;2023-07-13T16:26:32;24.30;97.10
52643;DHT22;38531;53.296;6.614;2023-07-13T16:29:12;24.50;97.70
52643;DHT22;38531;53.296;6.614;2023-07-13T16:31:39;24.80;97.00
52643;DHT22;38531;53.296;6.614;2023-07-13T16:34:05;24.90;96.80
52643;DHT22;38531;53.296;6.614;2023-07-13T16:36:31;25.20;96.40
52643;DHT22;38531;53.296;6.614;2023-07-13T16:38:58;24.90;96.10
52643;DHT22;38531;53.296;6.614;2023-07-13T16:41:24;24.50;95.20
52643;DHT22;38531;53.296;6.614;2023-07-13T16:43:50;24.60;96.40
52643;DHT22;38531;53.296;6.614;2023-07-13T16:46:21;24.40;96.90
52643;DHT22;38531;53.296;6.614;2023-07-13T16:48:48;24.40;96.50
52643;DHT22;38531;53.296;6.614;2023-07-13T16:51:14;24.20;96.80
52643;DHT22;38531;53.296;6.614;2023-07-13T16:53:40;23.90;97.40
52643;DHT22;38531;53.296;6.614;2023-07-13T16:56:15;24.20;97.50
52643;DHT22;38531;53.296;6.614;2023-07-13T16:58:42;24.20;96.60
52643;DHT22;38531;53.296;6.614;2023-07-13T17:01:08;24.20;96.80
52643;DHT22;38531;53.296;6.614;2023-07-13T17:03:33;24.10;96.90
52643;DHT22;38531;53.296;6.614;2023-07-13T17:06:00;24.10;97.00
52643;DHT22;38531;53.296;6.614;2023-07-13T17:08:29;24.00;96.90
52643;DHT22;38531;53.296;6.614;2023-07-13T17:10:58;24.00;96.50
52643;DHT22;38531;53.296;6.614;2023-07-13T17:13:26;23.80;96.10
52643;DHT22;38531;53.296;6.614;2023-07-13T17:15:53;23.70;97.00
52643;DHT22;38531;53.296;6.614;2023-07-13T17:18:26;23.70;96.70
52643;DHT22;38531;53.296;6.614;2023-07-13T17:20:55;23.50;96.90
52643;DHT22;38531;53.296;6.614;2023-07-13T17:26:12;23.30;97.70
52643;DHT22;38531;53.296;6.614;2023-07-13T17:28:39;23.00;98.00
52643;DHT22;38531;53.296;6.614;2023-07-13T17:31:12;22.90;98.50
52643;DHT22;38531;53.296;6.614;2023-07-13T17:33:50;22.90;98.50
52643;DHT22;38531;53.296;6.614;2023-07-13T17:36:16;22.70;98.80
52643;DHT22;38531;53.296;6.614;2023-07-13T17:38:47;22.50;98.10